Terminal Aerodrome Forecast
Issued by NWS Tuscon, AZ

Home | Current Version | Previous Version | Text Only | Print | Product List | Glossary On
Versions: 1 2 3 4 5 6 7 8 9 10 11 12 13 14 15
000
FTUS45 KTWC 201901 AAB
TAFDUG
TAF AMD
KDUG 201901Z 2019/2118 23016G24KT P6SM SCT028 OVC045
      TEMPO 2019/2021 BKN028
     FM202100 21022G32KT P6SM VCSH OVC040
     FM210300 19025G35KT P6SM RA BKN025 OVC035
     FM211100 26030G40KT P6SM RA OVC035=

USA.gov is the U.S. government's official web portal to all federal, state and local government web resources and services.